createdAt,value
2023-05-01T00:01:12.250Z,11.61
2023-05-01T00:03:57.125Z,11.61
2023-05-01T00:06:41.879Z,11.64
2023-05-01T00:09:29.995Z,11.62
2023-05-01T00:12:14.866Z,11.62
2023-05-01T00:14:59.690Z,11.57
2023-05-01T00:17:44.563Z,11.54
2023-05-01T00:20:29.816Z,11.57
2023-05-01T00:23:14.724Z,11.60
2023-05-01T00:25:59.684Z,11.60
2023-05-01T00:28:44.767Z,11.61
2023-05-01T00:31:30.030Z,11.62
2023-05-01T00:34:14.803Z,11.67
2023-05-01T00:36:59.725Z,11.65
2023-05-01T00:39:44.503Z,11.60
2023-05-01T00:42:39.104Z,11.61
2023-05-01T00:45:25.269Z,11.64
2023-05-01T00:48:11.211Z,11.64
2023-05-01T00:50:58.329Z,11.67
2023-05-01T00:53:43.615Z,11.66
2023-05-01T00:56:30.887Z,11.64
2023-05-01T00:59:15.862Z,11.68
2023-05-01T01:02:01.492Z,11.67
2023-05-01T01:04:47.832Z,11.58
2023-05-01T01:07:43.853Z,11.66
2023-05-01T01:10:56.944Z,11.70
2023-05-01T01:13:57.032Z,11.73
2023-05-01T01:16:48.634Z,11.72
2023-05-01T01:19:49.519Z,11.71
2023-05-01T01:22:38.826Z,11.77
2023-05-01T01:26:00.206Z,11.81
2023-05-01T01:29:04.697Z,11.75
2023-05-01T01:32:26.608Z,11.76
2023-05-01T01:35:19.362Z,11.74
2023-05-01T01:38:07.185Z,11.69
2023-05-01T01:41:08.654Z,11.65
2023-05-01T01:44:01.378Z,11.54
2023-05-01T01:46:48.544Z,11.59
2023-05-01T01:49:37.075Z,11.68
2023-05-01T01:52:24.570Z,11.69
2023-05-01T01:55:13.174Z,11.66
2023-05-01T01:58:00.501Z,11.60
2023-05-01T02:00:46.111Z,11.55
2023-05-01T02:03:32.999Z,11.57
2023-05-01T02:06:18.171Z,11.57
2023-05-01T02:09:06.352Z,11.60
2023-05-01T02:11:53.344Z,11.66
2023-05-01T02:14:39.623Z,11.70
2023-05-01T02:17:24.925Z,11.70
2023-05-01T02:20:12.616Z,11.77
2023-05-01T02:22:58.616Z,11.78
2023-05-01T02:25:45.121Z,11.77
2023-05-01T02:28:31.286Z,11.73
2023-05-01T02:31:16.289Z,11.72
2023-05-01T02:34:01.354Z,11.76
2023-05-01T02:36:46.251Z,11.74
2023-05-01T02:39:31.655Z,11.71
2023-05-01T02:42:20.169Z,11.69
2023-05-01T02:45:10.914Z,11.67
2023-05-01T02:47:59.935Z,11.66
2023-05-01T02:50:46.078Z,11.66
2023-05-01T02:53:32.615Z,11.56
2023-05-01T02:56:18.094Z,11.47
2023-05-01T02:59:02.974Z,11.45
2023-05-01T03:01:48.006Z,11.33
2023-05-01T03:04:33.191Z,11.29
2023-05-01T03:07:18.520Z,11.34
2023-05-01T03:10:05.276Z,11.27
2023-05-01T03:12:50.129Z,11.21
2023-05-01T03:15:35.237Z,11.20
2023-05-01T03:18:20.378Z,11.13
2023-05-01T03:21:05.305Z,11.11
2023-05-01T03:23:50.132Z,11.06
2023-05-01T03:26:35.225Z,11.00
2023-05-01T03:29:19.965Z,10.94
2023-05-01T03:32:05.793Z,10.88
2023-05-01T03:34:50.630Z,10.86
2023-05-01T03:37:36.012Z,10.90
2023-05-01T03:40:21.173Z,10.87
2023-05-01T03:43:06.562Z,10.81
2023-05-01T03:45:52.456Z,10.83
2023-05-01T03:48:37.613Z,10.79
2023-05-01T03:51:22.478Z,10.74
2023-05-01T03:54:07.249Z,10.67
2023-05-01T03:56:52.523Z,10.69
2023-05-01T03:59:37.993Z,10.72
2023-05-01T04:02:23.212Z,10.77
2023-05-01T04:05:09.213Z,10.77
2023-05-01T04:07:54.203Z,10.75
2023-05-01T04:10:38.969Z,10.74
2023-05-01T04:13:24.090Z,10.71
2023-05-01T04:16:08.793Z,10.70
2023-05-01T04:18:54.925Z,10.73
2023-05-01T04:21:39.777Z,10.71
2023-05-01T04:24:24.826Z,10.76
2023-05-01T04:27:09.758Z,10.74
2023-05-01T04:29:54.994Z,10.73
2023-05-01T04:32:40.452Z,10.70
2023-05-01T04:35:25.566Z,10.69
2023-05-01T04:38:10.431Z,10.75
2023-05-01T04:40:56.102Z,10.79
2023-05-01T04:43:40.857Z,10.77
2023-05-01T04:46:25.961Z,10.78
2023-05-01T04:49:11.549Z,10.81
2023-05-01T04:51:56.373Z,10.82
2023-05-01T04:54:41.441Z,10.87
2023-05-01T04:57:26.852Z,10.89
2023-05-01T05:00:12.324Z,10.88
2023-05-01T05:02:57.141Z,10.90
2023-05-01T05:05:42.273Z,10.91
2023-05-01T05:08:27.305Z,10.96
2023-05-01T05:11:12.731Z,10.99
2023-05-01T05:13:57.832Z,11.01
2023-05-01T05:16:43.071Z,11.05
2023-05-01T05:19:28.147Z,11.07
2023-05-01T05:22:13.208Z,11.16
2023-05-01T05:25:04.002Z,11.21
2023-05-01T05:27:49.046Z,11.23
2023-05-01T05:30:34.199Z,11.27
2023-05-01T05:33:19.258Z,11.35
2023-05-01T05:36:04.501Z,11.46
2023-05-01T05:38:49.693Z,11.51
2023-05-01T05:41:34.377Z,11.51
2023-05-01T05:44:20.300Z,11.57
2023-05-01T05:47:05.231Z,11.58
2023-05-01T05:49:50.329Z,11.57
2023-05-01T05:52:35.221Z,11.73
2023-05-01T05:55:20.472Z,11.74
2023-05-01T05:58:05.641Z,11.81
2023-05-01T06:00:52.857Z,11.87
2023-05-01T06:03:38.337Z,11.74
2023-05-01T06:06:23.608Z,11.87
2023-05-01T06:09:08.729Z,11.95
2023-05-01T06:11:53.512Z,11.70
2023-05-01T06:14:38.214Z,11.85
2023-05-01T06:17:24.040Z,11.90
2023-05-01T06:20:10.211Z,12.02
2023-05-01T06:22:55.526Z,11.94
2023-05-01T06:25:40.740Z,11.94
2023-05-01T06:28:25.620Z,11.98
2023-05-01T06:31:10.981Z,12.04
2023-05-01T06:33:55.928Z,12.07
2023-05-01T06:36:40.849Z,12.27
2023-05-01T06:39:25.745Z,12.19
2023-05-01T06:42:15.591Z,12.23
2023-05-01T06:45:00.824Z,12.45
2023-05-01T06:47:45.742Z,12.66
2023-05-01T06:50:31.069Z,12.68
2023-05-01T06:53:16.180Z,12.79
2023-05-01T06:56:00.862Z,12.73
2023-05-01T06:58:45.953Z,12.86
2023-05-01T07:01:32.687Z,12.87
2023-05-01T07:04:18.910Z,13.09
2023-05-01T07:07:03.985Z,13.25
2023-05-01T07:09:49.057Z,13.49
2023-05-01T07:12:33.852Z,13.44
2023-05-01T07:15:19.245Z,13.54
2023-05-01T07:18:05.988Z,13.52
2023-05-01T07:20:52.726Z,13.34
2023-05-01T07:23:38.050Z,13.06
2023-05-01T07:26:26.654Z,13.03
2023-05-01T07:29:13.172Z,13.57
2023-05-01T07:31:58.477Z,13.84
2023-05-01T07:34:43.470Z,13.50
2023-05-01T07:37:28.686Z,13.55
2023-05-01T07:40:13.678Z,13.70
2023-05-01T07:42:58.641Z,14.05
2023-05-01T07:45:54.805Z,14.47
2023-05-01T07:48:39.857Z,14.88
2023-05-01T07:51:24.698Z,14.96
2023-05-01T07:54:09.518Z,14.46
2023-05-01T07:56:54.333Z,14.01
2023-05-01T07:59:39.390Z,14.00
2023-05-01T08:02:24.420Z,14.09
2023-05-01T08:05:10.122Z,13.86
2023-05-01T08:07:54.858Z,14.61
2023-05-01T08:10:39.665Z,14.40
2023-05-01T08:13:24.594Z,15.13
2023-05-01T08:16:09.548Z,14.96
2023-05-01T08:18:54.523Z,15.53
2023-05-01T08:21:39.321Z,15.63
2023-05-01T08:24:24.864Z,15.01
2023-05-01T08:27:10.119Z,15.28
2023-05-01T08:29:55.079Z,14.97
2023-05-01T08:32:40.016Z,14.99
2023-05-01T08:35:25.126Z,15.41
2023-05-01T08:38:11.623Z,14.95
2023-05-01T08:40:58.701Z,15.26
2023-05-01T08:43:43.769Z,15.89
2023-05-01T08:46:41.354Z,15.66
2023-05-01T08:49:27.475Z,15.60
2023-05-01T08:52:14.360Z,15.58
2023-05-01T08:55:01.339Z,16.02
2023-05-01T08:57:48.064Z,16.23
2023-05-01T09:00:35.642Z,15.27
2023-05-01T09:03:21.439Z,16.96
2023-05-01T09:06:07.868Z,17.37
2023-05-01T09:08:52.616Z,17.59
2023-05-01T09:11:37.949Z,17.93
2023-05-01T09:14:23.433Z,18.10
2023-05-01T09:17:08.423Z,18.64
2023-05-01T09:19:53.581Z,16.61
2023-05-01T09:22:38.571Z,17.61
2023-05-01T09:25:23.851Z,17.76
2023-05-01T09:28:08.794Z,17.53
2023-05-01T09:30:53.611Z,18.11
2023-05-01T09:33:51.708Z,16.97
2023-05-01T09:36:37.371Z,16.76
2023-05-01T09:39:22.971Z,17.84
2023-05-01T09:42:07.996Z,18.77
2023-05-01T09:44:53.890Z,18.53
2023-05-01T09:47:39.883Z,18.80
2023-05-01T09:50:31.671Z,19.33
2023-05-01T09:53:16.650Z,18.17
2023-05-01T09:56:02.187Z,17.81
2023-05-01T09:58:51.749Z,18.12
2023-05-01T10:01:39.453Z,18.74
2023-05-01T10:04:34.500Z,19.93
2023-05-01T10:07:19.818Z,19.37
2023-05-01T10:10:23.663Z,19.36
2023-05-01T10:13:17.960Z,19.62
2023-05-01T10:16:07.276Z,21.72
2023-05-01T10:18:52.136Z,20.40
2023-05-01T10:21:37.206Z,18.76
2023-05-01T10:24:22.112Z,20.04
2023-05-01T10:27:07.854Z,18.38
2023-05-01T10:29:53.811Z,19.02
2023-05-01T10:32:41.773Z,18.08
2023-05-01T10:35:31.897Z,17.64
2023-05-01T10:38:25.931Z,17.88
2023-05-01T10:41:11.307Z,18.51
2023-05-01T10:44:19.845Z,17.92
2023-05-01T10:47:34.594Z,17.88
2023-05-01T10:50:19.732Z,17.99
2023-05-01T10:53:14.252Z,17.61
2023-05-01T10:55:59.446Z,18.32
2023-05-01T10:58:51.208Z,17.73
2023-05-01T11:01:39.622Z,18.35
2023-05-01T11:04:24.727Z,18.14
2023-05-01T11:07:18.254Z,18.86
2023-05-01T11:10:03.027Z,20.58
2023-05-01T11:12:51.405Z,19.71
2023-05-01T11:15:36.738Z,18.98
2023-05-01T11:18:45.262Z,19.41
2023-05-01T11:21:33.371Z,19.91
2023-05-01T11:24:19.616Z,19.24
2023-05-01T11:27:04.809Z,19.43
2023-05-01T11:29:50.378Z,19.60
2023-05-01T11:32:35.773Z,19.56
2023-05-01T11:35:28.798Z,20.66
2023-05-01T11:38:18.706Z,21.02
2023-05-01T11:41:06.593Z,20.69
2023-05-01T11:43:58.794Z,19.95
2023-05-01T11:46:43.879Z,19.55
2023-05-01T11:49:29.313Z,19.64
2023-05-01T11:52:14.223Z,19.30
2023-05-01T11:54:59.297Z,19.80
2023-05-01T11:57:52.446Z,19.60
2023-05-01T12:00:39.341Z,19.69
2023-05-01T12:03:24.469Z,19.34
2023-05-01T12:06:11.765Z,19.82
2023-05-01T12:08:56.781Z,20.36
2023-05-01T12:11:42.592Z,20.00
2023-05-01T12:14:27.844Z,19.80
2023-05-01T12:17:13.183Z,19.38
2023-05-01T12:19:58.272Z,19.25
2023-05-01T12:22:50.325Z,19.20
2023-05-01T12:25:36.672Z,19.38
2023-05-01T12:28:22.075Z,19.42
2023-05-01T12:31:08.068Z,19.54
2023-05-01T12:33:58.280Z,19.71
2023-05-01T12:36:53.296Z,19.67
2023-05-01T12:39:40.359Z,20.00
2023-05-01T12:42:25.513Z,20.69
2023-05-01T12:45:14.567Z,20.79
2023-05-01T12:47:59.620Z,20.33
2023-05-01T12:50:45.964Z,20.69
2023-05-01T12:53:33.348Z,19.76
2023-05-01T12:56:23.741Z,19.89
2023-05-01T12:59:20.206Z,20.24
2023-05-01T13:02:07.298Z,19.81
2023-05-01T13:04:52.059Z,20.03
2023-05-01T13:07:38.294Z,20.48
2023-05-01T13:10:31.436Z,20.65
2023-05-01T13:13:24.538Z,21.12
2023-05-01T13:16:16.735Z,20.79
2023-05-01T13:19:01.676Z,20.45
2023-05-01T13:21:50.371Z,20.13
2023-05-01T13:24:39.779Z,20.19
2023-05-01T13:27:25.462Z,19.92
2023-05-01T13:30:12.254Z,19.75
2023-05-01T13:32:57.427Z,20.15
2023-05-01T13:35:42.571Z,19.88
2023-05-01T13:38:28.525Z,19.80
2023-05-01T13:41:16.239Z,19.80
2023-05-01T13:44:01.394Z,19.63
2023-05-01T13:46:47.272Z,19.45
2023-05-01T13:49:32.373Z,19.18
2023-05-01T13:52:19.371Z,19.01
2023-05-01T13:55:07.169Z,18.83
2023-05-01T13:57:52.216Z,18.75
2023-05-01T14:00:39.644Z,18.40
2023-05-01T14:03:25.097Z,18.13
2023-05-01T14:06:18.033Z,18.03
2023-05-01T14:09:05.554Z,17.81
2023-05-01T14:11:51.198Z,17.89
2023-05-01T14:14:36.374Z,17.80
2023-05-01T14:17:36.046Z,17.55
2023-05-01T14:20:21.218Z,17.56
2023-05-01T14:23:06.167Z,17.42
2023-05-01T14:25:51.418Z,17.30
2023-05-01T14:28:43.126Z,16.93
2023-05-01T14:31:29.993Z,16.67
2023-05-01T14:34:17.287Z,16.63
2023-05-01T14:37:02.422Z,16.50
2023-05-01T14:39:47.208Z,16.28
2023-05-01T14:42:32.065Z,15.89
2023-05-01T14:45:17.393Z,15.87
2023-05-01T14:48:02.965Z,15.81
2023-05-01T14:50:48.157Z,15.47
2023-05-01T14:53:33.614Z,15.17
2023-05-01T14:56:19.005Z,15.12
2023-05-01T14:59:04.113Z,15.03
2023-05-01T15:01:49.438Z,14.74
2023-05-01T15:04:34.529Z,14.18
2023-05-01T15:07:19.460Z,13.99
2023-05-01T15:10:04.750Z,14.01
2023-05-01T15:12:51.154Z,14.00
2023-05-01T15:15:36.265Z,13.88
2023-05-01T15:18:22.690Z,13.86
2023-05-01T15:21:07.718Z,13.68
2023-05-01T15:23:52.878Z,13.66
2023-05-01T15:26:37.734Z,13.31
2023-05-01T15:29:22.830Z,13.14
2023-05-01T15:32:12.474Z,12.98
2023-05-01T15:34:58.335Z,13.09
2023-05-01T15:37:43.610Z,12.99
2023-05-01T15:40:28.649Z,12.77
2023-05-01T15:43:13.438Z,13.00
2023-05-01T15:45:59.514Z,13.08
2023-05-01T15:48:46.150Z,13.20
2023-05-01T15:51:33.912Z,13.31
2023-05-01T15:54:19.042Z,13.44
2023-05-01T15:57:03.906Z,13.06
2023-05-01T15:59:53.681Z,13.16
2023-05-01T16:02:38.804Z,13.29
2023-05-01T16:05:24.795Z,13.65
2023-05-01T16:08:10.110Z,13.84
2023-05-01T16:10:56.480Z,13.60
2023-05-01T16:13:43.001Z,13.53
2023-05-01T16:16:28.590Z,13.54
2023-05-01T16:19:16.544Z,14.15
2023-05-01T16:22:04.086Z,14.42
2023-05-01T16:24:49.399Z,14.29
2023-05-01T16:27:34.415Z,14.46
2023-05-01T16:30:21.862Z,14.50
2023-05-01T16:33:15.614Z,14.35
2023-05-01T16:36:02.865Z,14.29
2023-05-01T16:38:47.823Z,13.99
2023-05-01T16:41:42.078Z,13.92
2023-05-01T16:44:27.677Z,13.94
2023-05-01T16:47:12.975Z,13.99
2023-05-01T16:49:59.840Z,13.81
2023-05-01T16:52:45.275Z,13.75
2023-05-01T16:55:30.322Z,13.63
2023-05-01T16:58:15.281Z,13.55
2023-05-01T17:01:00.266Z,13.53
2023-05-01T17:03:45.287Z,13.50
2023-05-01T17:06:31.150Z,13.48
2023-05-01T17:09:15.842Z,13.35
2023-05-01T17:12:03.219Z,13.40
2023-05-01T17:14:48.358Z,13.29
2023-05-01T17:17:33.662Z,13.29
2023-05-01T17:20:18.592Z,13.31
2023-05-01T17:23:03.830Z,13.24
2023-05-01T17:25:48.805Z,13.22
2023-05-01T17:28:33.807Z,13.18
2023-05-01T17:31:21.073Z,13.21
2023-05-01T17:34:07.654Z,13.23
2023-05-01T17:36:52.931Z,13.24
2023-05-01T17:39:38.448Z,13.26
2023-05-01T17:42:23.517Z,13.09
2023-05-01T17:45:10.121Z,13.01
2023-05-01T17:47:55.500Z,13.16
2023-05-01T17:50:40.490Z,13.06
2023-05-01T17:53:25.542Z,13.13
2023-05-01T17:56:10.468Z,13.20
2023-05-01T17:58:55.305Z,13.17
2023-05-01T18:01:40.120Z,13.04
2023-05-01T18:04:25.033Z,12.98
2023-05-01T18:07:10.394Z,12.90
2023-05-01T18:09:55.155Z,12.82
2023-05-01T18:12:40.510Z,12.75
2023-05-01T18:15:26.077Z,12.77
2023-05-01T18:18:11.093Z,12.69
2023-05-01T18:20:57.025Z,12.67
2023-05-01T18:23:42.174Z,12.65
2023-05-01T18:26:27.524Z,12.74
2023-05-01T18:29:14.112Z,12.57
2023-05-01T18:31:59.050Z,12.45
2023-05-01T18:34:45.285Z,12.36
2023-05-01T18:37:30.206Z,12.20
2023-05-01T18:40:15.377Z,12.34
2023-05-01T18:43:00.248Z,12.25
2023-05-01T18:45:45.106Z,12.12
2023-05-01T18:48:30.235Z,12.12
2023-05-01T18:51:15.543Z,12.10
2023-05-01T18:54:02.070Z,11.98
2023-05-01T18:56:49.103Z,11.92
2023-05-01T18:59:33.909Z,11.91
2023-05-01T19:02:18.697Z,11.97
2023-05-01T19:05:03.991Z,11.90
2023-05-01T19:07:49.038Z,11.86
2023-05-01T19:10:35.946Z,11.84
2023-05-01T19:13:22.348Z,11.83
2023-05-01T19:16:07.431Z,11.73
2023-05-01T19:18:52.915Z,11.74
2023-05-01T19:21:37.859Z,11.77
2023-05-01T19:24:22.636Z,11.78
2023-05-01T19:27:07.876Z,11.72
2023-05-01T19:29:54.086Z,11.70
2023-05-01T19:32:39.098Z,11.67
2023-05-01T19:35:24.225Z,11.62
2023-05-01T19:38:09.486Z,11.59
2023-05-01T19:40:54.723Z,11.56
2023-05-01T19:43:40.386Z,11.58
2023-05-01T19:46:25.679Z,11.53
2023-05-01T19:49:10.297Z,11.49
2023-05-01T19:51:55.606Z,11.48
2023-05-01T19:54:40.987Z,11.44
2023-05-01T19:57:26.048Z,11.43
2023-05-01T20:00:12.202Z,11.47
2023-05-01T20:02:57.614Z,11.47
2023-05-01T20:05:42.990Z,11.38
2023-05-01T20:08:27.802Z,11.29
2023-05-01T20:11:13.016Z,11.27
2023-05-01T20:13:57.860Z,11.26
2023-05-01T20:16:43.121Z,11.26
2023-05-01T20:19:28.817Z,11.23
2023-05-01T20:22:13.882Z,11.14
2023-05-01T20:24:58.840Z,11.21
2023-05-01T20:27:43.843Z,11.27
2023-05-01T20:30:29.272Z,11.28
2023-05-01T20:33:14.340Z,11.33
2023-05-01T20:36:00.168Z,11.24
2023-05-01T20:38:47.414Z,11.18
2023-05-01T20:41:32.355Z,11.19
2023-05-01T20:44:17.466Z,11.02
2023-05-01T20:47:02.591Z,11.01
2023-05-01T20:49:47.587Z,11.01
2023-05-01T20:52:32.409Z,10.99
2023-05-01T20:55:17.654Z,10.91
2023-05-01T20:58:02.822Z,10.80
2023-05-01T21:00:48.030Z,10.89
2023-05-01T21:03:33.227Z,10.80
2023-05-01T21:06:18.380Z,10.90
2023-05-01T21:09:04.721Z,10.90
2023-05-01T21:11:49.952Z,10.81
2023-05-01T21:14:35.087Z,10.77
2023-05-01T21:17:20.115Z,10.87
2023-05-01T21:20:12.649Z,10.83
2023-05-01T21:23:01.853Z,10.82
2023-05-01T21:25:46.704Z,10.81
2023-05-01T21:28:31.832Z,10.77
2023-05-01T21:31:16.818Z,10.71
2023-05-01T21:34:04.870Z,10.73
2023-05-01T21:36:49.938Z,10.73
2023-05-01T21:39:36.041Z,10.77
2023-05-01T21:42:21.159Z,10.82
2023-05-01T21:45:12.688Z,10.85
2023-05-01T21:47:58.160Z,10.90
2023-05-01T21:50:42.876Z,10.94
2023-05-01T21:53:29.594Z,10.99
2023-05-01T21:56:14.521Z,10.90
2023-05-01T21:59:05.176Z,11.01
2023-05-01T22:01:50.258Z,10.85
2023-05-01T22:04:36.035Z,10.84
2023-05-01T22:07:21.361Z,10.89
2023-05-01T22:10:08.671Z,10.97
2023-05-01T22:12:53.736Z,10.95
2023-05-01T22:15:38.507Z,11.05
2023-05-01T22:18:23.738Z,11.04
2023-05-01T22:21:08.652Z,11.00
2023-05-01T22:23:53.813Z,11.16
2023-05-01T22:26:38.463Z,11.02
2023-05-01T22:29:23.697Z,11.12
2023-05-01T22:32:08.806Z,11.10
2023-05-01T22:34:53.799Z,11.21
2023-05-01T22:37:38.413Z,11.25
2023-05-01T22:40:23.321Z,11.18
2023-05-01T22:43:08.706Z,11.31
2023-05-01T22:45:53.967Z,11.20
2023-05-01T22:48:38.863Z,11.19
2023-05-01T22:51:23.890Z,11.26
2023-05-01T22:54:09.034Z,11.25
2023-05-01T22:56:54.199Z,11.29
2023-05-01T22:59:40.402Z,11.29
2023-05-01T23:02:25.173Z,11.31
2023-05-01T23:05:11.281Z,11.36
2023-05-01T23:07:56.134Z,11.28
2023-05-01T23:10:42.108Z,11.28
2023-05-01T23:13:27.995Z,11.31
2023-05-01T23:16:17.040Z,11.23
2023-05-01T23:19:02.223Z,11.25
2023-05-01T23:21:48.367Z,11.24
2023-05-01T23:24:41.688Z,11.24
2023-05-01T23:27:27.289Z,11.13
2023-05-01T23:30:13.670Z,11.13
2023-05-01T23:32:59.661Z,11.16
2023-05-01T23:35:44.980Z,11.24
2023-05-01T23:38:30.309Z,11.23
2023-05-01T23:41:15.898Z,11.28
2023-05-01T23:44:01.178Z,11.27
2023-05-01T23:46:46.662Z,11.38
2023-05-01T23:49:31.723Z,11.44
2023-05-01T23:52:16.987Z,11.42
2023-05-01T23:55:02.058Z,11.46
2023-05-01T23:57:46.899Z,11.51
